Time;durP1;ratioP1;P1;durP2;ratioP2;P2;SDS_P1;SDS_P2;PMS_P1;PMS_P2;Temp;Humidity;BMP_temperature;BMP_pressure;BME280_temperature;BME280_humidity;BME280_pressure;Samples;Min_cycle;Max_cycle;Signal;HPM_P1;HPM_P2
2024/01/29 00:02:22;;;;;;;151.73;143.43;;;2.80;96.70;;;;;;4952492;28;20035;-76
2024/01/29 00:04:48;;;;;;;164.07;154.77;;;2.70;96.90;;;;;;4952203;29;20117;-76
2024/01/29 00:07:14;;;;;;;179.57;169.37;;;2.70;97.10;;;;;;4947445;28;20497;-76
2024/01/29 00:09:41;;;;;;;139.97;132.37;;;2.60;97.30;;;;;;4950321;28;20102;-76
2024/01/29 00:12:07;;;;;;;145.10;137.07;;;2.60;97.30;;;;;;4948057;29;20532;-76
2024/01/29 00:14:32;;;;;;;153.50;145.00;;;2.60;97.70;;;;;;4947471;29;20027;-76
2024/01/29 00:16:58;;;;;;;163.40;154.53;;;2.60;97.60;;;;;;4951987;28;20071;-76
2024/01/29 00:19:24;;;;;;;132.60;125.37;;;2.50;97.70;;;;;;4951472;29;20039;-76
2024/01/29 00:21:50;;;;;;;126.90;119.80;;;2.50;97.70;;;;;;4948605;29;20089;-76
2024/01/29 00:24:16;;;;;;;164.57;155.48;;;2.40;97.80;;;;;;4934377;29;20042;-76
2024/01/29 00:26:41;;;;;;;137.77;130.20;;;2.40;98.00;;;;;;4948004;28;20043;-76
2024/01/29 00:29:07;;;;;;;116.47;109.87;;;2.40;98.10;;;;;;4934850;29;20043;-75
2024/01/29 00:31:33;;;;;;;174.73;164.93;;;2.30;98.20;;;;;;4950287;29;20121;-76
2024/01/29 00:33:59;;;;;;;124.37;117.67;;;2.30;98.20;;;;;;4947884;29;20046;-76
2024/01/29 00:36:24;;;;;;;126.53;119.47;;;2.30;98.50;;;;;;4950288;29;20031;-76
2024/01/29 00:38:50;;;;;;;156.93;148.33;;;2.20;98.50;;;;;;4952598;28;20066;-76
2024/01/29 00:41:16;;;;;;;127.43;120.70;;;2.20;98.50;;;;;;4930811;29;20114;-76
2024/01/29 00:43:41;;;;;;;134.17;126.83;;;2.10;98.70;;;;;;4948659;28;20476;-76
2024/01/29 00:46:07;;;;;;;125.70;118.67;;;2.00;98.80;;;;;;4948078;29;20047;-76
2024/01/29 00:48:33;;;;;;;130.53;123.60;;;2.00;99.00;;;;;;4931538;29;20051;-76
2024/01/29 00:51:01;;;;;;;118.77;112.27;;;1.90;99.10;;;;;;4961267;28;20508;-76
2024/01/29 00:53:26;;;;;;;129.98;122.68;;;1.90;99.30;;;;;;4949254;28;20039;-76
2024/01/29 00:55:53;;;;;;;109.17;103.30;;;1.90;99.20;;;;;;4946097;28;20053;-76
2024/01/29 00:58:20;;;;;;;129.38;122.22;;;1.80;99.80;;;;;;4944940;28;20051;-76
2024/01/29 01:00:47;;;;;;;127.65;120.78;;;1.80;99.90;;;;;;4934287;29;20127;-76
2024/01/29 01:03:13;;;;;;;136.52;128.95;;;1.70;99.90;;;;;;4945244;29;20074;-76
2024/01/29 01:05:40;;;;;;;123.20;116.57;;;1.70;99.90;;;;;;4939148;29;20086;-76
2024/01/29 01:08:05;;;;;;;132.32;124.95;;;1.70;99.90;;;;;;4944058;28;20059;-76
2024/01/29 01:10:31;;;;;;;149.80;141.13;;;1.70;99.90;;;;;;4949139;28;20507;-75
2024/01/29 01:12:57;;;;;;;133.37;126.13;;;1.70;99.90;;;;;;4952278;29;20037;-75
2024/01/29 01:15:23;;;;;;;139.17;131.60;;;1.70;99.90;;;;;;4930648;29;20121;-75
2024/01/29 01:17:49;;;;;;;116.23;110.07;;;1.70;99.90;;;;;;4923634;29;20039;-75
2024/01/29 01:20:14;;;;;;;151.23;142.80;;;1.70;99.90;;;;;;4947609;28;20117;-75
2024/01/29 01:22:40;;;;;;;107.20;101.13;;;1.70;99.90;;;;;;4930578;29;20189;-75
2024/01/29 01:25:07;;;;;;;151.30;142.80;;;1.70;99.90;;;;;;4949590;28;20552;-76
2024/01/29 01:27:33;;;;;;;153.88;145.00;;;1.60;99.90;;;;;;4929387;29;20401;-75
2024/01/29 01:29:59;;;;;;;91.27;86.17;;;1.70;99.90;;;;;;4934483;29;20047;-75
2024/01/29 01:32:24;;;;;;;108.63;102.70;;;1.60;99.90;;;;;;4931905;29;20093;-75
2024/01/29 01:34:50;;;;;;;131.90;124.93;;;1.60;99.90;;;;;;4931475;29;20122;-75
2024/01/29 01:37:16;;;;;;;126.70;119.67;;;1.60;99.90;;;;;;4941623;28;20125;-76
2024/01/29 01:39:41;;;;;;;98.07;92.80;;;1.60;99.90;;;;;;4949943;28;20043;-75
2024/01/29 01:42:08;;;;;;;156.23;147.37;;;1.60;99.90;;;;;;4949369;28;20070;-75
2024/01/29 01:44:34;;;;;;;103.30;97.82;;;1.60;99.90;;;;;;4925910;29;20046;-75
2024/01/29 01:47:00;;;;;;;84.45;79.68;;;1.60;99.90;;;;;;4949179;29;20497;-76
2024/01/29 01:49:27;;;;;;;96.70;91.32;;;1.60;99.90;;;;;;4934053;29;20042;-76
2024/01/29 01:51:53;;;;;;;74.05;69.88;;;1.60;99.90;;;;;;4950442;28;20051;-76
2024/01/29 01:54:19;;;;;;;94.35;89.03;;;1.60;99.90;;;;;;4948307;28;20402;-76
2024/01/29 01:56:47;;;;;;;76.32;72.22;;;1.50;99.90;;;;;;4939622;29;20122;-76
2024/01/29 01:59:13;;;;;;;92.13;87.10;;;1.50;99.90;;;;;;4933222;29;20074;-76
2024/01/29 02:01:39;;;;;;;72.90;68.73;;;1.40;99.90;;;;;;4948359;28;20070;-75
2024/01/29 02:04:05;;;;;;;88.33;83.33;;;1.40;99.90;;;;;;4949407;28;20047;-75
2024/01/29 02:06:31;;;;;;;81.63;77.22;;;1.40;99.90;;;;;;4947497;28;20279;-75
2024/01/29 02:09:00;;;;;;;77.53;73.07;;;1.30;99.90;;;;;;4947048;28;20056;-75
2024/01/29 02:11:25;;;;;;;63.47;59.67;;;1.30;99.90;;;;;;4945973;28;20057;-75
2024/01/29 02:13:51;;;;;;;82.20;77.60;;;1.30;99.90;;;;;;4925413;29;20181;-75
2024/01/29 02:16:17;;;;;;;82.47;77.73;;;1.30;99.90;;;;;;4929070;29;20520;-75
2024/01/29 02:18:43;;;;;;;79.87;75.43;;;1.30;99.90;;;;;;4932263;29;20035;-75
2024/01/29 02:21:09;;;;;;;62.53;58.70;;;1.30;99.90;;;;;;4947755;28;20051;-75
2024/01/29 02:23:35;;;;;;;58.27;54.90;;;1.30;99.90;;;;;;4949540;29;20401;-75
2024/01/29 02:26:00;;;;;;;60.73;57.23;;;1.30;99.90;;;;;;4942773;28;20075;-76
2024/01/29 02:28:27;;;;;;;59.70;56.10;;;1.30;99.90;;;;;;4944160;28;20501;-76
2024/01/29 02:30:53;;;;;;;55.47;52.13;;;1.30;99.90;;;;;;4928515;29;20093;-75
2024/01/29 02:33:19;;;;;;;70.50;66.20;;;1.30;99.90;;;;;;4945476;29;20044;-75
2024/01/29 02:35:48;;;;;;;65.80;62.15;;;1.20;99.90;;;;;;4941965;29;20276;-75
2024/01/29 02:38:14;;;;;;;64.32;60.58;;;1.20;99.90;;;;;;4939491;28;20042;-76
2024/01/29 02:40:39;;;;;;;58.33;55.00;;;1.20;99.90;;;;;;4930180;28;20044;-75
2024/01/29 02:43:11;;;;;;;60.73;57.23;;;1.20;99.90;;;;;;4948067;28;20042;-76
2024/01/29 02:45:37;;;;;;;67.18;63.42;;;1.20;99.90;;;;;;4933803;29;20501;-76
2024/01/29 02:48:03;;;;;;;92.77;87.57;;;1.20;99.90;;;;;;4940881;29;20114;-75
2024/01/29 02:50:29;;;;;;;79.53;75.10;;;1.20;99.90;;;;;;4946655;29;20413;-75
2024/01/29 02:52:55;;;;;;;74.70;70.45;;;1.20;99.90;;;;;;4947444;28;20039;-75
2024/01/29 02:55:21;;;;;;;95.87;90.63;;;1.20;99.90;;;;;;4944443;29;20043;-75
2024/01/29 02:57:46;;;;;;;65.70;62.03;;;1.10;99.90;;;;;;4946075;28;20106;-75
2024/01/29 03:00:12;;;;;;;79.10;74.83;;;1.10;99.90;;;;;;4931324;28;20562;-76
2024/01/29 03:02:38;;;;;;;58.28;54.90;;;1.20;99.90;;;;;;4930075;29;20039;-75
2024/01/29 03:05:04;;;;;;;95.20;89.57;;;1.20;99.90;;;;;;4954134;28;20090;-75
2024/01/29 03:07:30;;;;;;;90.05;84.93;;;1.20;99.90;;;;;;4941041;28;20059;-75
2024/01/29 03:09:55;;;;;;;66.57;62.90;;;1.20;99.90;;;;;;4954313;28;20626;-75
2024/01/29 03:12:21;;;;;;;75.53;71.27;;;1.20;99.90;;;;;;4936777;29;20143;-75
2024/01/29 03:14:47;;;;;;;58.57;55.07;;;1.20;99.90;;;;;;4933804;29;20039;-75
2024/01/29 03:17:12;;;;;;;66.17;62.27;;;1.20;99.90;;;;;;4944839;28;20046;-75
2024/01/29 03:19:39;;;;;;;111.33;104.80;;;1.20;99.90;;;;;;4948928;28;20135;-75
2024/01/29 03:22:05;;;;;;;85.38;80.30;;;1.10;99.90;;;;;;4952036;28;20085;-76
2024/01/29 03:24:31;;;;;;;69.13;65.23;;;1.10;99.90;;;;;;4954222;28;20054;-75
2024/01/29 03:26:56;;;;;;;92.93;87.40;;;1.10;99.90;;;;;;4947431;29;20044;-75
2024/01/29 03:29:22;;;;;;;54.00;50.80;;;1.10;99.90;;;;;;4939478;29;20485;-76
2024/01/29 03:31:48;;;;;;;105.90;99.83;;;1.20;99.90;;;;;;4951357;28;20107;-76
2024/01/29 03:34:13;;;;;;;77.47;72.57;;;1.10;99.90;;;;;;4932773;29;20039;-75
2024/01/29 03:36:39;;;;;;;49.83;46.60;;;1.10;99.90;;;;;;4927951;29;20047;-75
2024/01/29 03:39:05;;;;;;;79.60;75.10;;;1.10;99.90;;;;;;4945244;28;20409;-76
2024/01/29 03:41:31;;;;;;;100.80;94.90;;;1.10;99.90;;;;;;4952521;28;20525;-76
2024/01/29 03:43:56;;;;;;;51.83;48.83;;;1.10;99.90;;;;;;4936074;29;20070;-76
2024/01/29 03:46:22;;;;;;;92.67;87.27;;;1.10;99.90;;;;;;4930294;29;20291;-76
2024/01/29 03:48:47;;;;;;;64.83;61.03;;;1.10;99.90;;;;;;4950758;28;20039;-76
2024/01/29 03:51:13;;;;;;;55.83;52.57;;;1.10;99.90;;;;;;4930739;29;20048;-76
2024/01/29 03:53:39;;;;;;;82.53;77.80;;;1.10;99.90;;;;;;4943915;28;20062;-76
2024/01/29 03:56:05;;;;;;;58.70;55.33;;;1.20;99.90;;;;;;4951125;28;20404;-76
2024/01/29 03:58:31;;;;;;;66.33;62.57;;;1.20;99.90;;;;;;4935005;28;20038;-76
2024/01/29 04:00:57;;;;;;;119.75;113.13;;;1.20;99.90;;;;;;4946257;28;20039;-76
2024/01/29 04:03:22;;;;;;;63.20;59.80;;;1.20;99.90;;;;;;4930189;29;20051;-76
2024/01/29 04:05:48;;;;;;;65.63;61.83;;;1.20;99.90;;;;;;4954152;28;20079;-76
2024/01/29 04:08:13;;;;;;;66.67;62.87;;;1.20;99.90;;;;;;4934287;28;20059;-76
2024/01/29 04:10:39;;;;;;;58.27;54.90;;;1.20;99.90;;;;;;4944846;28;20134;-75
2024/01/29 04:13:05;;;;;;;82.47;77.43;;;1.20;99.90;;;;;;4943924;28;20470;-76
2024/01/29 04:15:30;;;;;;;48.33;45.43;;;1.10;99.90;;;;;;4936201;29;20075;-76
2024/01/29 04:17:56;;;;;;;60.40;57.00;;;1.20;99.90;;;;;;4954624;28;20037;-76
2024/01/29 04:20:22;;;;;;;51.90;49.00;;;1.20;99.90;;;;;;4929090;29;20040;-76
2024/01/29 04:22:47;;;;;;;52.30;49.23;;;1.20;99.90;;;;;;4933370;28;20078;-76
2024/01/29 04:25:13;;;;;;;71.00;66.37;;;1.20;99.90;;;;;;4940543;28;20091;-76
2024/01/29 04:27:39;;;;;;;51.08;48.10;;;1.20;99.90;;;;;;4925592;28;20540;-76
2024/01/29 04:30:06;;;;;;;76.20;71.73;;;1.20;99.90;;;;;;4928600;29;20130;-76
2024/01/29 04:32:31;;;;;;;113.63;107.13;;;1.30;99.90;;;;;;4952304;28;20086;-76
2024/01/29 04:34:57;;;;;;;83.70;78.93;;;1.30;99.90;;;;;;4934751;28;20081;-76
2024/01/29 04:37:24;;;;;;;62.90;59.20;;;1.30;99.90;;;;;;4957812;28;20492;-76
2024/01/29 04:39:49;;;;;;;41.83;39.10;;;1.30;99.90;;;;;;4939170;28;20157;-76
2024/01/29 04:42:15;;;;;;;59.17;55.50;;;1.30;99.90;;;;;;4938501;28;20461;-76
2024/01/29 04:44:41;;;;;;;51.03;48.07;;;1.40;99.90;;;;;;4952179;28;20126;-76
2024/01/29 04:47:07;;;;;;;51.57;48.33;;;1.40;99.90;;;;;;4937441;29;20058;-76
2024/01/29 04:49:32;;;;;;;72.27;67.97;;;1.40;99.90;;;;;;4934613;29;20563;-76
2024/01/29 04:51:58;;;;;;;85.60;80.10;;;1.40;99.90;;;;;;4956903;28;20101;-76
2024/01/29 04:54:24;;;;;;;116.43;109.77;;;1.40;99.90;;;;;;4946164;28;20039;-76
2024/01/29 04:56:50;;;;;;;79.00;74.80;;;1.50;99.90;;;;;;4954780;28;20516;-76
2024/01/29 04:59:15;;;;;;;46.07;43.23;;;1.50;99.90;;;;;;4950569;28;20378;-76
2024/01/29 05:01:41;;;;;;;57.63;53.87;;;1.40;99.90;;;;;;4944115;28;20076;-76
2024/01/29 05:04:07;;;;;;;56.50;52.80;;;1.40;99.90;;;;;;4955112;28;20114;-76
2024/01/29 05:06:33;;;;;;;50.88;47.83;;;1.40;99.90;;;;;;4956666;28;20089;-76
2024/01/29 05:09:00;;;;;;;46.53;43.67;;;1.40;99.90;;;;;;4927785;28;20527;-76
2024/01/29 05:11:26;;;;;;;66.85;62.95;;;1.30;99.90;;;;;;4927760;29;20051;-76
2024/01/29 05:13:53;;;;;;;52.47;49.37;;;1.30;99.90;;;;;;4955232;28;20198;-76
2024/01/29 05:16:19;;;;;;;56.55;53.35;;;1.30;99.90;;;;;;4939626;28;20043;-76
2024/01/29 05:18:45;;;;;;;52.00;48.90;;;1.30;99.90;;;;;;4948750;28;20509;-76
2024/01/29 05:21:12;;;;;;;114.88;108.50;;;1.30;99.90;;;;;;4936451;28;21101;-76
2024/01/29 05:23:38;;;;;;;85.25;80.25;;;1.30;99.90;;;;;;4930107;29;20039;-76
2024/01/29 05:26:04;;;;;;;58.60;54.77;;;1.30;99.90;;;;;;4935347;29;20046;-76
2024/01/29 05:28:30;;;;;;;68.13;63.50;;;1.40;99.90;;;;;;4935286;29;20046;-76
2024/01/29 05:30:56;;;;;;;57.60;54.10;;;1.40;99.90;;;;;;4945432;28;20417;-75
2024/01/29 05:33:21;;;;;;;57.27;53.60;;;1.40;99.90;;;;;;4935891;29;20050;-76
2024/01/29 05:35:47;;;;;;;63.50;59.67;;;1.40;99.90;;;;;;4948713;28;20039;-76
2024/01/29 05:38:13;;;;;;;140.73;132.40;;;1.40;99.90;;;;;;4964474;28;20042;-76
2024/01/29 05:40:39;;;;;;;44.33;41.47;;;1.40;99.90;;;;;;4940566;29;20058;-76
2024/01/29 05:43:04;;;;;;;81.60;76.97;;;1.40;99.90;;;;;;4951566;28;20037;-76
2024/01/29 05:45:30;;;;;;;52.13;48.73;;;1.40;99.90;;;;;;4947926;29;20070;-76
2024/01/29 05:47:55;;;;;;;70.17;65.97;;;1.40;99.90;;;;;;4928328;28;20042;-76
2024/01/29 05:50:21;;;;;;;74.00;69.63;;;1.50;99.90;;;;;;4948923;28;20494;-75
2024/01/29 05:52:47;;;;;;;89.10;83.67;;;1.50;99.90;;;;;;4946724;29;20043;-76
2024/01/29 05:55:13;;;;;;;105.60;99.03;;;1.50;99.90;;;;;;4945198;28;20086;-76
2024/01/29 05:57:39;;;;;;;94.33;88.63;;;1.50;99.90;;;;;;4930467;29;20109;-76
2024/01/29 06:00:12;;;;;;;85.47;80.40;;;1.60;99.90;;;;;;4949674;29;20035;-76
2024/01/29 06:02:46;;;;;;;54.58;51.20;;;1.60;99.90;;;;;;4945614;28;20054;-76
2024/01/29 06:05:13;;;;;;;55.50;52.22;;;1.60;99.90;;;;;;4956176;28;20094;-76
2024/01/29 06:07:40;;;;;;;57.17;53.50;;;1.60;99.90;;;;;;4940520;28;20062;-76
2024/01/29 06:10:10;;;;;;;75.07;70.38;;;1.60;99.90;;;;;;4945314;28;20047;-76
2024/01/29 06:12:35;;;;;;;55.38;51.72;;;1.60;99.90;;;;;;4932996;29;20417;-76
2024/01/29 06:15:01;;;;;;;63.23;59.23;;;1.60;99.90;;;;;;4927220;29;20035;-76
2024/01/29 06:17:29;;;;;;;76.93;72.25;;;1.60;99.90;;;;;;4953158;28;20126;-75
2024/01/29 06:19:54;;;;;;;98.75;92.60;;;1.50;99.90;;;;;;4945506;28;20478;-76
2024/01/29 06:22:20;;;;;;;46.33;43.33;;;1.50;99.90;;;;;;4949044;28;20042;-76
2024/01/29 06:24:46;;;;;;;47.27;44.10;;;1.50;99.90;;;;;;4939340;29;20043;-75
2024/01/29 06:27:11;;;;;;;68.30;63.90;;;1.50;99.90;;;;;;4947219;29;20137;-76
2024/01/29 06:29:37;;;;;;;41.10;38.17;;;1.50;99.90;;;;;;4942517;29;20429;-76
2024/01/29 06:32:03;;;;;;;59.93;55.60;;;1.40;99.90;;;;;;4945107;29;20040;-76
2024/01/29 06:34:29;;;;;;;54.72;50.63;;;1.40;99.90;;;;;;4939405;28;20512;-74
2024/01/29 06:36:55;;;;;;;64.57;60.03;;;1.40;99.90;;;;;;4929057;29;20035;-75
2024/01/29 06:39:21;;;;;;;85.40;80.20;;;1.40;99.90;;;;;;4946479;29;20179;-74
2024/01/29 06:41:46;;;;;;;65.10;61.10;;;1.40;99.90;;;;;;4935088;29;20054;-75
2024/01/29 06:44:12;;;;;;;62.23;58.50;;;1.40;99.90;;;;;;4951041;28;20039;-75
2024/01/29 06:46:38;;;;;;;41.47;38.40;;;1.40;99.90;;;;;;4958159;28;20485;-75
2024/01/29 06:49:06;;;;;;;98.32;92.32;;;1.40;99.90;;;;;;4939585;29;20078;-75
2024/01/29 06:51:31;;;;;;;55.90;52.03;;;1.50;99.90;;;;;;4950932;28;20043;-74
2024/01/29 06:53:58;;;;;;;54.30;50.73;;;1.50;99.90;;;;;;4948328;29;20109;-75
2024/01/29 06:56:24;;;;;;;74.47;69.65;;;1.60;99.90;;;;;;4948810;28;20043;-74
2024/01/29 06:58:50;;;;;;;74.10;69.37;;;1.60;99.90;;;;;;4929532;29;20119;-74
2024/01/29 07:01:20;;;;;;;45.80;42.87;;;1.60;99.90;;;;;;4942778;28;20095;-74
2024/01/29 07:03:46;;;;;;;63.15;59.15;;;1.70;99.90;;;;;;4939814;28;20046;-75
2024/01/29 07:06:11;;;;;;;84.10;79.07;;;1.70;99.90;;;;;;4936553;29;20520;-75
2024/01/29 07:08:37;;;;;;;51.83;48.10;;;1.70;99.90;;;;;;4942539;28;20099;-75
2024/01/29 07:11:03;;;;;;;68.83;64.50;;;1.70;99.90;;;;;;4937742;28;20046;-75
2024/01/29 07:13:29;;;;;;;68.55;64.10;;;1.80;99.90;;;;;;4945205;28;20528;-75
2024/01/29 07:15:55;;;;;;;52.00;48.63;;;1.70;99.90;;;;;;4949616;29;20062;-75
2024/01/29 07:18:22;;;;;;;45.63;42.67;;;1.80;99.90;;;;;;4946079;28;20102;-74
2024/01/29 07:20:50;;;;;;;98.68;93.05;;;1.80;99.90;;;;;;4949481;28;20498;-75
2024/01/29 07:23:15;;;;;;;131.00;123.07;;;1.80;99.90;;;;;;4944429;28;20065;-75
2024/01/29 07:25:41;;;;;;;63.93;59.77;;;1.80;99.90;;;;;;4938405;29;20040;-75
2024/01/29 07:28:08;;;;;;;212.60;198.87;;;1.90;99.90;;;;;;4943109;28;20044;-75
2024/01/29 07:30:34;;;;;;;95.78;90.05;;;2.00;99.90;;;;;;4942744;28;20072;-76
2024/01/29 07:33:01;;;;;;;62.53;58.70;;;2.00;99.90;;;;;;4937386;29;20406;-75
2024/01/29 07:35:27;;;;;;;88.53;83.10;;;2.00;99.90;;;;;;4951196;28;20079;-75
2024/01/29 07:37:53;;;;;;;77.00;71.90;;;2.10;99.90;;;;;;4958849;28;20513;-75
2024/01/29 07:40:19;;;;;;;135.25;127.28;;;2.10;99.90;;;;;;4951700;28;20126;-75
2024/01/29 07:42:46;;;;;;;60.85;57.10;;;2.10;99.90;;;;;;4922585;29;20055;-75
2024/01/29 07:45:12;;;;;;;81.90;76.78;;;2.20;99.90;;;;;;4932696;29;20103;-75
2024/01/29 07:47:38;;;;;;;79.03;74.15;;;2.20;99.90;;;;;;4934392;29;20447;-75
2024/01/29 07:50:04;;;;;;;71.00;66.73;;;2.20;99.90;;;;;;4930818;28;20043;-75
2024/01/29 07:52:29;;;;;;;97.20;91.55;;;2.20;99.90;;;;;;4926132;28;20051;-75
2024/01/29 07:54:55;;;;;;;77.43;72.63;;;2.30;99.90;;;;;;4930799;29;20039;-76
2024/01/29 07:57:21;;;;;;;111.63;104.63;;;2.20;99.90;;;;;;4942444;28;20044;-76
2024/01/29 07:59:46;;;;;;;107.10;101.03;;;2.30;99.90;;;;;;4930685;29;20050;-76
2024/01/29 08:02:12;;;;;;;86.50;81.17;;;2.30;99.90;;;;;;4941105;28;20044;-75
2024/01/29 08:04:38;;;;;;;67.78;63.38;;;2.30;99.90;;;;;;4956026;28;20127;-76
2024/01/29 08:07:04;;;;;;;121.47;114.40;;;2.40;99.90;;;;;;4926018;29;20478;-75
2024/01/29 08:09:30;;;;;;;58.33;54.43;;;2.40;99.90;;;;;;4951920;28;20051;-75
2024/01/29 08:11:56;;;;;;;59.87;55.93;;;2.50;99.90;;;;;;4960747;28;20130;-75
2024/01/29 08:14:22;;;;;;;74.80;69.97;;;2.50;99.90;;;;;;4950630;28;20612;-76
2024/01/29 08:16:48;;;;;;;98.80;92.70;;;2.50;99.90;;;;;;4957315;28;20135;-75
2024/01/29 08:19:14;;;;;;;109.70;103.23;;;2.50;99.90;;;;;;4944081;29;20067;-75
2024/01/29 08:21:39;;;;;;;75.10;70.67;;;2.50;99.90;;;;;;4938749;29;20290;-76
2024/01/29 08:24:05;;;;;;;51.80;48.40;;;2.50;99.90;;;;;;4936252;28;20035;-75
2024/01/29 08:26:31;;;;;;;58.90;55.03;;;2.50;99.90;;;;;;4933048;28;20073;-75
2024/01/29 08:28:58;;;;;;;102.83;96.40;;;2.50;99.90;;;;;;4950617;28;20042;-76
2024/01/29 08:31:24;;;;;;;48.75;45.35;;;2.50;99.90;;;;;;4953020;28;20370;-75
2024/01/29 08:33:50;;;;;;;54.80;51.30;;;2.60;99.90;;;;;;4947551;28;20130;-76
2024/01/29 08:36:20;;;;;;;53.58;50.15;;;2.60;99.90;;;;;;4937568;28;20047;-75
2024/01/29 08:38:46;;;;;;;54.80;51.42;;;2.60;99.90;;;;;;4934627;29;20537;-76
2024/01/29 08:41:12;;;;;;;61.03;56.83;;;2.60;99.90;;;;;;4950267;28;20236;-75
2024/01/29 08:43:38;;;;;;;86.57;81.40;;;2.60;99.90;;;;;;4958349;28;20663;-76
2024/01/29 08:46:04;;;;;;;62.67;58.83;;;2.60;99.90;;;;;;4949725;28;20036;-75
2024/01/29 08:48:29;;;;;;;61.03;57.08;;;2.70;99.90;;;;;;4950538;28;20067;-76
2024/01/29 08:50:55;;;;;;;66.93;62.77;;;2.80;99.90;;;;;;4938081;28;20043;-75
2024/01/29 08:53:21;;;;;;;77.70;72.90;;;2.80;99.90;;;;;;4929332;28;20040;-76
2024/01/29 08:55:46;;;;;;;108.97;102.50;;;2.90;99.90;;;;;;4932705;28;20031;-75
2024/01/29 08:58:12;;;;;;;52.37;48.87;;;3.00;99.90;;;;;;4946345;28;20174;-76
2024/01/29 09:00:38;;;;;;;87.50;82.03;;;3.10;99.90;;;;;;4932704;28;20039;-76
2024/01/29 09:03:03;;;;;;;150.20;141.43;;;3.10;99.90;;;;;;4954584;28;20058;-76
2024/01/29 09:05:29;;;;;;;121.10;114.13;;;3.20;99.90;;;;;;4926750;28;20549;-76
2024/01/29 09:07:55;;;;;;;82.67;77.63;;;3.30;99.90;;;;;;4963054;28;20051;-75
2024/01/29 09:10:22;;;;;;;89.60;84.20;;;3.40;99.90;;;;;;4949764;29;20046;-76
2024/01/29 09:12:48;;;;;;;70.03;65.75;;;3.50;99.90;;;;;;4929458;29;20051;-76
2024/01/29 09:15:13;;;;;;;111.97;105.33;;;3.60;99.90;;;;;;4939136;28;20050;-76
2024/01/29 09:17:40;;;;;;;101.00;95.17;;;3.60;99.90;;;;;;4944788;28;20390;-76
2024/01/29 09:20:10;;;;;;;149.10;140.40;;;3.70;99.90;;;;;;4946663;28;20039;-75
2024/01/29 09:22:35;;;;;;;172.95;162.40;;;3.80;99.90;;;;;;4942075;28;20102;-75
2024/01/29 09:25:01;;;;;;;95.83;90.23;;;3.90;99.90;;;;;;4940307;28;20046;-76
2024/01/29 09:27:29;;;;;;;135.93;127.90;;;4.00;99.90;;;;;;4948777;28;20461;-76
2024/01/29 09:29:55;;;;;;;266.30;250.25;;;4.10;99.90;;;;;;4931235;29;20498;-76
2024/01/29 09:32:20;;;;;;;134.87;126.40;;;4.20;99.90;;;;;;4930963;28;20050;-75
2024/01/29 09:34:46;;;;;;;132.43;124.60;;;4.30;99.90;;;;;;4947828;28;20411;-76
2024/01/29 09:37:12;;;;;;;263.43;247.47;;;4.40;99.90;;;;;;4952227;28;20050;-76
2024/01/29 09:39:37;;;;;;;180.33;169.87;;;4.50;99.90;;;;;;4943758;28;20397;-76
2024/01/29 09:42:05;;;;;;;192.20;181.27;;;4.60;99.90;;;;;;4957046;28;20515;-75
2024/01/29 09:44:39;;;;;;;208.63;196.13;;;4.70;99.90;;;;;;4946317;28;20059;-76
2024/01/29 09:47:06;;;;;;;103.10;97.38;;;4.80;99.90;;;;;;4930626;29;20090;-75
2024/01/29 09:49:36;;;;;;;152.15;143.20;;;4.80;99.90;;;;;;4954607;28;20440;-76
2024/01/29 09:52:06;;;;;;;257.95;242.23;;;4.90;99.90;;;;;;4933990;28;20043;-76
2024/01/29 09:54:33;;;;;;;225.60;212.30;;;5.00;99.90;;;;;;4948692;28;20051;-76
2024/01/29 09:56:59;;;;;;;269.10;252.32;;;5.10;99.90;;;;;;4940099;28;20083;-76
2024/01/29 09:59:25;;;;;;;213.27;201.13;;;5.10;99.90;;;;;;4950627;28;20074;-76
2024/01/29 10:01:52;;;;;;;231.70;218.23;;;5.20;99.90;;;;;;4949050;28;20964;-75
2024/01/29 10:04:19;;;;;;;186.77;175.85;;;5.20;99.90;;;;;;4941611;28;20497;-76
2024/01/29 10:06:44;;;;;;;228.15;214.75;;;5.30;99.90;;;;;;4955384;28;20121;-75
2024/01/29 10:09:11;;;;;;;208.30;195.30;;;5.40;99.90;;;;;;4953749;28;20198;-76
2024/01/29 10:11:39;;;;;;;185.88;174.57;;;5.40;99.90;;;;;;4950539;28;20047;-75
2024/01/29 10:14:06;;;;;;;211.73;199.48;;;5.50;99.90;;;;;;4957577;28;20546;-75
2024/01/29 10:16:32;;;;;;;219.98;207.10;;;5.50;99.90;;;;;;4944220;28;20218;-76
2024/01/29 10:19:00;;;;;;;163.87;154.57;;;5.50;99.90;;;;;;4945784;28;20121;-75
2024/01/29 10:21:26;;;;;;;212.50;200.25;;;5.60;99.90;;;;;;4942454;28;20043;-75
2024/01/29 10:23:58;;;;;;;149.00;140.32;;;5.60;99.90;;;;;;4948633;28;20056;-76
2024/01/29 10:26:25;;;;;;;200.88;188.90;;;5.60;99.90;;;;;;4947468;28;20054;-75
2024/01/29 10:29:10;;;;;;;244.05;229.35;;;5.70;99.90;;;;;;4962269;28;20043;-76
2024/01/29 10:31:36;;;;;;;181.80;171.23;;;5.70;99.90;;;;;;4950548;28;20051;-76
2024/01/29 10:34:03;;;;;;;206.95;194.80;;;5.70;99.90;;;;;;4947694;28;20130;-76
2024/01/29 10:36:29;;;;;;;210.75;198.57;;;5.70;99.90;;;;;;4944494;28;20042;-76
2024/01/29 10:38:58;;;;;;;251.67;236.53;;;5.70;99.90;;;;;;4944096;28;20039;-77
2024/01/29 10:41:25;;;;;;;210.73;197.80;;;5.80;99.90;;;;;;4945763;28;20051;-77
2024/01/29 10:43:52;;;;;;;240.23;226.13;;;5.80;99.90;;;;;;4945297;28;20112;-76
2024/01/29 10:46:22;;;;;;;193.88;182.50;;;5.90;99.90;;;;;;4918551;29;20409;-76
2024/01/29 10:48:49;;;;;;;290.80;272.55;;;5.90;99.90;;;;;;4941994;28;20528;-76
2024/01/29 10:51:16;;;;;;;434.58;399.83;;;5.90;99.90;;;;;;4944582;29;20389;-76
2024/01/29 10:53:44;;;;;;;275.10;257.27;;;6.00;99.90;;;;;;4944157;28;20071;-77
2024/01/29 10:56:10;;;;;;;276.65;259.17;;;6.00;99.90;;;;;;4947793;28;20502;-76
2024/01/29 10:58:37;;;;;;;325.90;304.98;;;6.10;99.90;;;;;;4932434;29;20070;-76
2024/01/29 11:01:06;;;;;;;215.30;202.35;;;6.10;99.90;;;;;;4934075;29;20031;-76
2024/01/29 11:03:34;;;;;;;224.52;210.63;;;6.10;99.90;;;;;;4927498;29;20043;-76
2024/01/29 11:06:06;;;;;;;343.83;320.58;;;6.10;99.90;;;;;;4947551;28;20509;-76
2024/01/29 11:08:35;;;;;;;240.32;225.57;;;6.10;99.90;;;;;;4948595;28;20055;-76
2024/01/29 11:11:02;;;;;;;231.32;216.90;;;6.10;99.90;;;;;;4941885;28;20524;-77
2024/01/29 11:13:30;;;;;;;207.65;193.48;;;6.10;99.90;;;;;;4945328;28;20527;-77
2024/01/29 11:15:55;;;;;;;316.38;294.08;;;6.10;99.90;;;;;;4943418;28;20082;-77
2024/01/29 11:18:21;;;;;;;345.83;320.57;;;6.10;99.90;;;;;;4934087;28;20317;-77
2024/01/29 11:20:50;;;;;;;311.70;289.70;;;6.10;99.90;;;;;;4938442;28;20048;-77
2024/01/29 11:23:20;;;;;;;293.20;271.52;;;6.00;99.90;;;;;;4943582;28;20462;-76
2024/01/29 11:25:49;;;;;;;319.25;297.67;;;6.00;99.90;;;;;;4955780;28;20099;-77
2024/01/29 11:28:15;;;;;;;384.23;356.35;;;6.00;99.90;;;;;;4943553;28;20043;-77
2024/01/29 11:30:49;;;;;;;397.83;369.33;;;6.00;99.90;;;;;;4927712;29;20054;-77
2024/01/29 11:33:18;;;;;;;309.92;289.58;;;6.00;99.90;;;;;;4948538;29;20490;-77
2024/01/29 11:35:45;;;;;;;341.80;319.40;;;6.00;99.90;;;;;;4966992;28;20038;-76
2024/01/29 11:38:13;;;;;;;331.17;308.13;;;6.00;99.90;;;;;;4937256;29;20042;-76
2024/01/29 11:40:40;;;;;;;283.92;265.58;;;6.00;99.90;;;;;;4957379;28;20054;-77
2024/01/29 11:43:14;;;;;;;306.92;286.90;;;6.00;99.90;;;;;;4943191;28;20046;-77
2024/01/29 11:45:41;;;;;;;325.90;304.55;;;6.00;99.90;;;;;;4953602;29;20131;-76
2024/01/29 11:48:11;;;;;;;266.77;250.45;;;6.00;99.90;;;;;;4958526;28;20516;-76
2024/01/29 11:50:44;;;;;;;248.68;233.80;;;6.00;99.90;;;;;;4973945;28;20043;-77
2024/01/29 11:53:14;;;;;;;286.67;269.42;;;6.10;99.90;;;;;;4943808;29;20066;-76
2024/01/29 11:55:41;;;;;;;352.60;329.10;;;6.10;99.90;;;;;;4959551;28;20046;-77
2024/01/29 11:58:14;;;;;;;317.63;297.33;;;6.10;99.90;;;;;;4939475;29;20398;-77
2024/01/29 12:00:44;;;;;;;240.82;226.23;;;6.20;99.90;;;;;;4950587;29;20043;-77
2024/01/29 12:03:14;;;;;;;273.42;256.08;;;6.20;99.90;;;;;;4942009;29;20043;-77
2024/01/29 12:05:40;;;;;;;286.25;267.98;;;6.30;99.90;;;;;;4947707;28;20047;-77
2024/01/29 12:08:16;;;;;;;312.58;292.67;;;6.30;99.90;;;;;;4961885;28;20051;-77
2024/01/29 12:10:46;;;;;;;320.55;300.05;;;6.30;99.90;;;;;;4942598;29;20553;-77
2024/01/29 12:13:16;;;;;;;267.52;250.70;;;6.40;99.90;;;;;;4946445;29;20039;-77
2024/01/29 12:15:42;;;;;;;317.13;296.95;;;6.50;99.90;;;;;;4937027;28;20502;-76
2024/01/29 12:18:14;;;;;;;333.25;311.73;;;6.60;99.90;;;;;;4952959;29;20046;-76
2024/01/29 12:20:41;;;;;;;321.55;300.85;;;6.70;99.90;;;;;;4945152;29;20043;-77
2024/01/29 12:23:07;;;;;;;406.60;378.50;;;6.80;99.90;;;;;;4938795;29;20142;-77
2024/01/29 12:25:33;;;;;;;371.52;346.00;;;6.80;99.90;;;;;;4953360;28;20047;-77